West Palm Beach, FL

3:06 PM EST on January 27, 2015 (GMT -0500)
RiverWalk | Change Station
CLOSE
Current Station
Personal Weather Station
Location: West Palm Beach, FL
Elevation: 15 ft
Nearby Weather Stations

Elev 15 ft 26.71 °N, 80.17 °W | Updated 11 minutes ago

Clear
Clear
67.6 °F
Feels Like 67.6 °F
N
4.7
Wind Variable Wind from SW

Today
High -- | Low -- °F
--% Chance of Precip.
Yesterday
High -- | Low -- °F
Precip. -- in
7:08 AM 5:59 PM
First Quarter, 57% visible
Pressure 29.96 in
Visibility 10.0 miles
Clouds Few 25000 ft
Dew Point 44 °F
Humidity 42%
Rainfall 0.00 in
Snow Depth Not available.
UV 4 out of 12
Pollen 8.50 out of 12
Air Quality Not available.
Flu Activity Not available.
METAR KPBI 271953Z 28012G20KT 10SM FEW250 19/03 A2996 RMK AO2 SLP145 T01940033

More Conditions Fewer Conditions

Pressure 29.96 in
Visibility 10.0 miles
Clouds Few 25000 ft
Dew Point 44 °F
Humidity 42%
Rainfall 0.00 in
Snow Depth Not available.
UV 4 out of 12
Pollen 8.50 out of 12
Air Quality Not available.
Flu Activity Not available.
METAR KPBI 271953Z 28012G20KT 10SM FEW250 19/03 A2996 RMK AO2 SLP145 T01940033

More Conditions Fewer Conditions

10-Day Weather Forecast

Almanac

Astronomy

Jan. 27, 2015 Rise Set
Actual Time
Civil Twilight
Nautical Twilight
Astronomical Twilight
Moon
Length of Visible Light
Length of Day
Tomorrow will be .
, % of the Moon is Illuminated

Today's Extremes

State Highs State Lows

Community

WunderPhotos

Upload Photos

1,790,874 photos uploaded!

WunderBlogs® & News

Nearby

Air Quality

  Air Quality AQ Index Pollutant
Not available.

Snow Depth

Station Depth Elevation

Earthquake Activity

City Distance Mag. Time & Date
Minimum magnitude displayed is 2.5.

Coastal Water Temperatures

Place Temperature

Nearby Weather Stations